createdAt,value
2018-06-10T00:00:12.542Z,269.43
2018-06-10T00:02:41.031Z,289.67
2018-06-10T00:05:09.503Z,351.20
2018-06-10T00:07:38.139Z,308.80
2018-06-10T00:10:06.692Z,275.43
2018-06-10T00:12:35.151Z,293.03
2018-06-10T00:15:03.373Z,316.53
2018-06-10T00:17:31.831Z,260.50
2018-06-10T00:20:00.312Z,302.77
2018-06-10T00:22:28.791Z,341.00
2018-06-10T00:24:57.292Z,326.80
2018-06-10T00:27:25.746Z,306.30
2018-06-10T00:29:54.263Z,286.67
2018-06-10T00:32:22.721Z,256.90
2018-06-10T00:34:51.261Z,201.90
2018-06-10T00:37:19.753Z,183.37
2018-06-10T00:39:48.292Z,190.60
2018-06-10T00:42:16.808Z,257.60
2018-06-10T00:44:45.301Z,297.67
2018-06-10T00:47:13.469Z,303.13
2018-06-10T00:49:42.807Z,339.10
2018-06-10T00:52:11.279Z,383.73
2018-06-10T00:54:40.015Z,299.23
2018-06-10T00:57:08.699Z,332.87
2018-06-10T00:59:37.250Z,336.27
2018-06-10T01:02:05.756Z,373.17
2018-06-10T01:04:34.351Z,369.27
2018-06-10T01:07:02.848Z,379.03
2018-06-10T01:09:31.308Z,357.70
2018-06-10T01:11:59.892Z,322.03
2018-06-10T01:14:28.438Z,327.13
2018-06-10T01:16:57.008Z,355.60
2018-06-10T01:19:25.187Z,362.17
2018-06-10T01:21:53.682Z,371.30
2018-06-10T01:24:22.163Z,382.00
2018-06-10T01:26:51.212Z,425.63
2018-06-10T01:29:20.072Z,396.37
2018-06-10T01:31:48.614Z,380.60
2018-06-10T01:34:17.119Z,386.63
2018-06-10T01:36:45.666Z,406.87
2018-06-10T01:39:14.132Z,346.83
2018-06-10T01:41:42.808Z,337.90
2018-06-10T01:44:11.353Z,330.13
2018-06-10T01:46:39.810Z,339.10
2018-06-10T01:49:08.382Z,322.97
2018-06-10T01:51:36.851Z,301.83
2018-06-10T01:54:05.419Z,273.73
2018-06-10T01:56:33.874Z,283.33
2018-06-10T01:59:02.540Z,305.37
2018-06-10T02:01:30.987Z,289.47
2018-06-10T02:03:59.636Z,336.20
2018-06-10T02:06:28.123Z,336.53
2018-06-10T02:08:56.588Z,272.07
2018-06-10T02:11:25.162Z,326.50
2018-06-10T02:13:53.706Z,353.97
2018-06-10T02:16:22.251Z,329.27
2018-06-10T02:18:50.768Z,331.43
2018-06-10T02:21:19.522Z,300.83
2018-06-10T02:23:47.704Z,217.60
2018-06-10T02:26:16.188Z,216.90
2018-06-10T02:28:44.685Z,241.80
2018-06-10T02:31:13.377Z,209.53
2018-06-10T02:33:41.830Z,222.07
2018-06-10T02:36:10.343Z,213.60
2018-06-10T02:38:38.935Z,248.27
2018-06-10T02:41:07.467Z,196.83
2018-06-10T02:43:35.948Z,204.60
2018-06-10T02:46:04.455Z,201.47
2018-06-10T02:48:32.907Z,176.20
2018-06-10T02:51:01.396Z,198.10
2018-06-10T02:53:29.859Z,188.07
2018-06-10T02:55:58.415Z,208.40
2018-06-10T02:58:26.883Z,193.07
2018-06-10T03:00:55.471Z,207.87
2018-06-10T03:03:23.971Z,200.33
2018-06-10T03:05:52.450Z,212.97
2018-06-10T03:08:20.660Z,204.57
2018-06-10T03:10:49.173Z,230.60
2018-06-10T03:13:17.720Z,249.73
2018-06-10T03:15:46.187Z,239.20
2018-06-10T03:18:14.701Z,248.27
2018-06-10T03:20:43.162Z,252.87
2018-06-10T03:23:11.836Z,268.83
2018-06-10T03:25:40.280Z,264.37
2018-06-10T03:28:08.775Z,259.50
2018-06-10T03:30:37.227Z,275.97
2018-06-10T03:33:05.728Z,289.20
2018-06-10T03:35:34.227Z,299.50
2018-06-10T03:38:02.725Z,323.23
2018-06-10T03:40:31.327Z,311.87
2018-06-10T03:42:59.848Z,310.83
2018-06-10T03:45:28.331Z,311.70
2018-06-10T03:47:56.844Z,322.87
2018-06-10T03:50:25.054Z,324.10
2018-06-10T03:52:53.560Z,292.37
2018-06-10T03:55:22.086Z,246.77
2018-06-10T03:57:50.629Z,218.00
2018-06-10T04:00:19.207Z,213.70
2018-06-10T04:02:47.811Z,226.77
2018-06-10T04:05:16.329Z,190.33
2018-06-10T04:07:44.519Z,208.10
2018-06-10T04:10:13.035Z,229.67
2018-06-10T04:12:41.504Z,231.60
2018-06-10T04:15:10.287Z,239.00
2018-06-10T04:17:38.800Z,228.63
2018-06-10T04:20:07.293Z,241.73
2018-06-10T04:22:35.792Z,295.87
2018-06-10T04:25:04.336Z,296.97
2018-06-10T04:27:33.080Z,319.50
2018-06-10T04:30:01.584Z,312.67
2018-06-10T04:32:30.073Z,260.27
2018-06-10T04:34:58.555Z,257.30
2018-06-10T04:37:27.095Z,207.30
2018-06-10T04:39:55.538Z,195.40
2018-06-10T04:42:24.205Z,220.77
2018-06-10T04:44:52.701Z,212.27
2018-06-10T04:47:21.256Z,215.53
2018-06-10T04:49:49.765Z,243.83
2018-06-10T04:52:18.235Z,276.63
2018-06-10T04:54:46.703Z,313.73
2018-06-10T04:57:15.433Z,350.53
2018-06-10T04:59:43.991Z,399.33
2018-06-10T05:02:12.503Z,387.27
2018-06-10T05:04:40.952Z,409.77
2018-06-10T05:07:09.488Z,395.93
2018-06-10T05:09:38.230Z,393.03
2018-06-10T05:12:06.892Z,408.93
2018-06-10T05:14:35.479Z,377.20
2018-06-10T05:17:04.352Z,391.03
2018-06-10T05:19:32.982Z,379.87
2018-06-10T05:22:01.493Z,415.87
2018-06-10T05:24:29.960Z,369.00
2018-06-10T05:26:58.472Z,406.13
2018-06-10T05:29:27.415Z,377.70
2018-06-10T05:31:55.915Z,346.77
2018-06-10T05:34:24.378Z,316.77
2018-06-10T05:36:52.876Z,304.70
2018-06-10T05:39:21.343Z,315.80
2018-06-10T05:41:49.867Z,329.23
2018-06-10T05:44:18.334Z,315.80
2018-06-10T05:46:46.886Z,325.47
2018-06-10T05:49:15.343Z,357.10
2018-06-10T05:51:43.543Z,373.67
2018-06-10T05:54:12.046Z,383.47
2018-06-10T05:56:40.555Z,390.13
2018-06-10T05:59:09.038Z,349.17
2018-06-10T06:01:37.537Z,420.07
2018-06-10T06:04:05.772Z,419.43
2018-06-10T06:06:34.271Z,414.97
2018-06-10T06:09:02.772Z,390.67
2018-06-10T06:11:31.325Z,413.60
2018-06-10T06:13:59.855Z,379.70
2018-06-10T06:16:28.356Z,360.97
2018-06-10T06:18:56.879Z,367.33
2018-06-10T06:21:25.381Z,162.70
2018-06-10T06:23:53.925Z,208.83
2018-06-10T06:26:22.424Z,195.63
2018-06-10T06:28:50.892Z,182.87
2018-06-10T06:31:19.415Z,167.50
2018-06-10T06:33:47.902Z,167.60
2018-06-10T06:36:16.416Z,203.63
2018-06-10T06:38:44.882Z,222.50
2018-06-10T06:41:13.544Z,228.50
2018-06-10T06:43:42.021Z,189.10
2018-06-10T06:46:10.539Z,201.77
2018-06-10T06:48:39.057Z,200.90
2018-06-10T06:51:07.540Z,221.93
2018-06-10T06:53:36.073Z,217.60
2018-06-10T06:56:04.576Z,212.13
2018-06-10T06:58:33.062Z,223.43
2018-06-10T07:01:01.553Z,264.23
2018-06-10T07:03:30.156Z,244.20
2018-06-10T07:05:58.791Z,234.80
2018-06-10T07:08:26.983Z,225.83
2018-06-10T07:10:55.497Z,228.57
2018-06-10T07:13:24.010Z,159.60
2018-06-10T07:15:52.521Z,165.60
2018-06-10T07:18:21.072Z,147.13
2018-06-10T07:20:49.526Z,159.30
2018-06-10T07:23:18.043Z,144.97
2018-06-10T07:25:46.548Z,151.87
2018-06-10T07:28:15.077Z,111.13
2018-06-10T07:30:43.540Z,86.27
2018-06-10T07:33:12.095Z,68.17
2018-06-10T07:35:40.597Z,71.73
2018-06-10T07:38:09.086Z,51.30
2018-06-10T07:40:37.614Z,48.00
2018-06-10T07:43:06.141Z,46.97
2018-06-10T07:45:34.642Z,49.77
2018-06-10T07:48:03.164Z,33.07
2018-06-10T07:50:31.662Z,42.67
2018-06-10T07:53:00.175Z,53.37
2018-06-10T07:55:28.792Z,57.37
2018-06-10T07:57:57.324Z,56.10
2018-06-10T08:00:26.225Z,95.87
2018-06-10T08:02:54.711Z,74.03
2018-06-10T08:05:23.272Z,75.03
2018-06-10T08:07:51.708Z,68.00
2018-06-10T08:10:20.280Z,75.60
2018-06-10T08:12:49.029Z,99.50
2018-06-10T08:15:17.282Z,126.30
2018-06-10T08:17:45.830Z,96.53
2018-06-10T08:20:14.360Z,110.90
2018-06-10T08:22:42.908Z,96.30
2018-06-10T08:25:11.473Z,101.60
2018-06-10T08:27:39.954Z,130.50
2018-06-10T08:30:08.505Z,119.83
2018-06-10T08:32:36.977Z,153.03
2018-06-10T08:35:05.540Z,147.43
2018-06-10T08:37:34.032Z,174.30
2018-06-10T08:40:02.591Z,154.70
2018-06-10T08:42:31.103Z,166.83
2018-06-10T08:44:59.674Z,171.80
2018-06-10T08:47:28.229Z,166.27
2018-06-10T08:49:56.730Z,167.27
2018-06-10T08:52:25.255Z,167.90
2018-06-10T08:54:53.410Z,164.07
2018-06-10T08:57:21.915Z,186.40
2018-06-10T08:59:50.362Z,210.73
2018-06-10T09:02:18.909Z,196.37
2018-06-10T09:04:47.407Z,154.13
2018-06-10T09:07:16.066Z,171.13
2018-06-10T09:09:44.552Z,135.03
2018-06-10T09:12:13.023Z,95.40
2018-06-10T09:14:41.718Z,79.90
2018-06-10T09:17:09.829Z,74.80
2018-06-10T09:19:38.316Z,77.70
2018-06-10T09:22:06.829Z,81.93
2018-06-10T09:24:35.316Z,61.93
2018-06-10T09:27:03.929Z,58.70
2018-06-10T09:29:32.420Z,69.83
2018-06-10T09:32:02.693Z,65.83
2018-06-10T09:34:31.261Z,80.23
2018-06-10T09:36:59.758Z,67.00
2018-06-10T09:39:28.409Z,82.13
2018-06-10T09:41:57.057Z,59.07
2018-06-10T09:44:25.531Z,69.17
2018-06-10T09:46:53.718Z,53.37
2018-06-10T09:49:22.199Z,66.10
2018-06-10T09:51:50.728Z,58.27
2018-06-10T09:54:19.164Z,75.13
2018-06-10T09:56:47.746Z,67.37
2018-06-10T09:59:16.252Z,67.57
2018-06-10T10:01:44.839Z,51.57
2018-06-10T10:04:13.335Z,69.17
2018-06-10T10:06:41.812Z,65.07
2018-06-10T10:09:10.328Z,59.67
2018-06-10T10:11:38.845Z,58.03
2018-06-10T10:14:07.473Z,65.17
2018-06-10T10:16:36.038Z,68.67
2018-06-10T10:19:04.526Z,65.50
2018-06-10T10:21:33.018Z,67.17
2018-06-10T10:24:01.546Z,71.73
2018-06-10T10:26:30.052Z,68.90
2018-06-10T10:28:58.519Z,62.83
2018-06-10T10:31:26.740Z,64.73
2018-06-10T10:33:55.212Z,77.60
2018-06-10T10:36:23.692Z,65.07
2018-06-10T10:38:52.375Z,68.93
2018-06-10T10:41:20.886Z,63.23
2018-06-10T10:43:49.090Z,73.57
2018-06-10T10:46:17.274Z,56.10
2018-06-10T10:48:45.828Z,56.87
2018-06-10T10:51:14.381Z,42.40
2018-06-10T10:53:42.887Z,70.63
2018-06-10T10:56:11.563Z,50.73
2018-06-10T10:58:40.066Z,47.70
2018-06-10T11:01:08.548Z,48.50
2018-06-10T11:03:37.032Z,59.20
2018-06-10T11:06:05.643Z,52.30
2018-06-10T11:08:34.115Z,57.90
2018-06-10T11:11:02.410Z,48.93
2018-06-10T11:13:30.960Z,52.63
2018-06-10T11:15:59.508Z,48.63
2018-06-10T11:18:28.259Z,51.23
2018-06-10T11:20:56.722Z,53.10
2018-06-10T11:23:25.293Z,31.03
2018-06-10T11:25:53.904Z,44.27
2018-06-10T11:28:22.403Z,34.70
2018-06-10T11:30:51.030Z,47.37
2018-06-10T11:33:19.604Z,53.50
2018-06-10T11:35:48.101Z,52.63
2018-06-10T11:38:16.645Z,56.60
2018-06-10T11:40:45.128Z,44.93
2018-06-10T11:43:18.360Z,27.83
2018-06-10T11:45:51.670Z,37.93
2018-06-10T11:48:26.981Z,30.70
2018-06-10T11:51:01.531Z,38.77
2018-06-10T11:53:30.079Z,35.57
2018-06-10T11:55:58.698Z,32.53
2018-06-10T11:58:32.637Z,68.63
2018-06-10T12:01:06.457Z,33.80
2018-06-10T12:03:39.514Z,49.57
2018-06-10T12:06:12.339Z,59.03
2018-06-10T12:08:40.963Z,61.50
2018-06-10T12:11:14.224Z,66.03
2018-06-10T12:13:49.510Z,55.87
2018-06-10T12:16:21.871Z,63.17
2018-06-10T12:18:55.959Z,81.37
2018-06-10T12:21:28.814Z,72.47
2018-06-10T12:23:57.329Z,87.17
2018-06-10T12:26:25.888Z,77.90
2018-06-10T12:28:57.269Z,74.43
2018-06-10T12:31:25.881Z,75.73
2018-06-10T12:33:54.385Z,70.73
2018-06-10T12:36:22.900Z,76.13
2018-06-10T12:38:51.407Z,69.23
2018-06-10T12:41:19.942Z,66.77
2018-06-10T12:43:48.448Z,67.73
2018-06-10T12:46:16.911Z,72.33
2018-06-10T12:48:45.442Z,60.43
2018-06-10T12:51:18.330Z,76.40
2018-06-10T12:53:46.892Z,72.87
2018-06-10T12:56:20.419Z,65.57
2018-06-10T12:58:53.702Z,70.13
2018-06-10T13:01:26.206Z,65.77
2018-06-10T13:03:59.859Z,76.77
2018-06-10T13:06:28.427Z,81.67
2018-06-10T13:08:57.097Z,65.07
2018-06-10T13:11:25.327Z,69.67
2018-06-10T13:13:53.819Z,71.37
2018-06-10T13:16:22.422Z,68.37
2018-06-10T13:18:50.916Z,70.30
2018-06-10T13:21:19.086Z,68.17
2018-06-10T13:23:47.630Z,74.40
2018-06-10T13:26:16.151Z,62.17
2018-06-10T13:28:48.839Z,63.27
2018-06-10T13:31:18.272Z,66.87
2018-06-10T13:33:46.823Z,67.87
2018-06-10T13:36:16.595Z,70.47
2018-06-10T13:38:45.863Z,67.73
2018-06-10T13:41:14.416Z,56.77
2018-06-10T13:43:42.890Z,61.47
2018-06-10T13:46:11.379Z,66.87
2018-06-10T13:48:39.580Z,65.50
2018-06-10T13:51:12.782Z,56.37
2018-06-10T13:53:41.321Z,71.57
2018-06-10T13:56:14.434Z,56.93
2018-06-10T13:58:42.630Z,58.20
2018-06-10T14:01:13.975Z,60.77
2018-06-10T14:03:47.173Z,59.73
2018-06-10T14:06:21.124Z,58.27
2018-06-10T14:08:55.712Z,65.53
2018-06-10T14:11:26.983Z,67.50
2018-06-10T14:13:55.498Z,81.17
2018-06-10T14:16:28.378Z,57.17
2018-06-10T14:18:56.706Z,60.43
2018-06-10T14:21:25.176Z,64.90
2018-06-10T14:23:53.667Z,48.77
2018-06-10T14:26:22.144Z,44.40
2018-06-10T14:28:50.657Z,40.43
2018-06-10T14:31:19.174Z,45.13
2018-06-10T14:33:47.654Z,45.77
2018-06-10T14:36:16.147Z,41.93
2018-06-10T14:38:44.437Z,48.87
2018-06-10T14:41:12.953Z,59.33
2018-06-10T14:43:41.525Z,53.83
2018-06-10T14:46:10.036Z,53.63
2018-06-10T14:48:38.539Z,45.43
2018-06-10T14:51:07.010Z,44.00
2018-06-10T14:53:35.525Z,37.77
2018-06-10T14:56:04.011Z,50.60
2018-06-10T14:58:32.490Z,55.63
2018-06-10T15:01:00.742Z,68.43
2018-06-10T15:03:29.274Z,75.73
2018-06-10T15:05:57.821Z,71.50
2018-06-10T15:08:26.361Z,70.27
2018-06-10T15:10:54.885Z,70.20
2018-06-10T15:13:23.933Z,68.03
2018-06-10T15:15:52.492Z,60.90
2018-06-10T15:18:20.982Z,56.80
2018-06-10T15:20:49.507Z,59.10
2018-06-10T15:23:18.141Z,59.90
2018-06-10T15:25:46.659Z,61.07
2018-06-10T15:28:15.103Z,66.23
2018-06-10T15:30:43.630Z,48.67
2018-06-10T15:33:12.131Z,63.33
2018-06-10T15:35:40.690Z,45.27
2018-06-10T15:38:09.363Z,48.20
2018-06-10T15:40:38.031Z,55.43
2018-06-10T15:43:06.869Z,57.40
2018-06-10T15:45:35.410Z,52.57
2018-06-10T15:48:03.957Z,40.17
2018-06-10T15:50:32.473Z,44.73
2018-06-10T15:53:01.021Z,54.20
2018-06-10T15:55:29.580Z,58.00
2018-06-10T15:57:58.084Z,67.70
2018-06-10T16:00:26.657Z,63.07
2018-06-10T16:02:55.152Z,59.00
2018-06-10T16:05:23.831Z,119.47
2018-06-10T16:07:52.297Z,106.23
2018-06-10T16:10:20.849Z,119.87
2018-06-10T16:12:49.330Z,127.70
2018-06-10T16:15:17.905Z,139.10
2018-06-10T16:17:46.467Z,123.50
2018-06-10T16:20:14.689Z,123.17
2018-06-10T16:22:43.301Z,119.20
2018-06-10T16:25:11.949Z,111.97
2018-06-10T16:27:40.442Z,113.43
2018-06-10T16:30:09.007Z,125.40
2018-06-10T16:32:37.577Z,120.20
2018-06-10T16:35:06.117Z,111.30
2018-06-10T16:37:34.698Z,100.80
2018-06-10T16:40:03.269Z,93.23
2018-06-10T16:42:35.217Z,81.27
2018-06-10T16:45:05.174Z,80.33
2018-06-10T16:47:35.280Z,71.47
2018-06-10T16:50:03.897Z,78.50
2018-06-10T16:52:32.511Z,87.03
2018-06-10T16:55:01.044Z,79.80
2018-06-10T16:57:29.591Z,78.27
2018-06-10T16:59:58.082Z,72.00
2018-06-10T17:02:26.657Z,73.97
2018-06-10T17:04:55.196Z,70.07
2018-06-10T17:07:23.380Z,62.23
2018-06-10T17:09:51.949Z,59.60
2018-06-10T17:12:20.485Z,65.00
2018-06-10T17:14:49.045Z,68.47
2018-06-10T17:17:17.219Z,68.63
2018-06-10T17:19:45.888Z,79.33
2018-06-10T17:22:14.383Z,83.97
2018-06-10T17:24:44.107Z,86.43
2018-06-10T17:27:12.649Z,80.10
2018-06-10T17:29:41.133Z,82.20
2018-06-10T17:32:09.692Z,76.87
2018-06-10T17:34:38.235Z,80.87
2018-06-10T17:37:06.761Z,75.40
2018-06-10T17:39:35.286Z,82.33
2018-06-10T17:42:03.506Z,71.20
2018-06-10T17:44:32.342Z,79.53
2018-06-10T17:47:00.567Z,77.20
2018-06-10T17:49:29.123Z,69.40
2018-06-10T17:51:57.627Z,69.73
2018-06-10T17:54:26.155Z,77.57
2018-06-10T17:56:54.714Z,87.83
2018-06-10T17:59:23.284Z,83.03
2018-06-10T18:01:51.971Z,85.20
2018-06-10T18:04:20.515Z,80.10
2018-06-10T18:06:49.103Z,81.67
2018-06-10T18:09:17.695Z,82.57
2018-06-10T18:11:46.180Z,85.53
2018-06-10T18:14:14.747Z,80.20
2018-06-10T18:16:42.933Z,81.70
2018-06-10T18:19:11.425Z,76.83
2018-06-10T18:21:39.948Z,80.20
2018-06-10T18:24:08.608Z,84.03
2018-06-10T18:26:37.631Z,77.50
2018-06-10T18:29:06.108Z,80.30
2018-06-10T18:31:34.635Z,78.53
2018-06-10T18:34:02.856Z,77.20
2018-06-10T18:36:31.407Z,77.50
2018-06-10T18:39:00.123Z,76.67
2018-06-10T18:41:28.556Z,72.77
2018-06-10T18:43:57.082Z,65.97
2018-06-10T18:46:25.653Z,56.40
2018-06-10T18:48:54.175Z,55.17
2018-06-10T18:51:22.742Z,57.47
2018-06-10T18:53:51.266Z,71.00
2018-06-10T18:56:19.461Z,58.27
2018-06-10T18:58:48.096Z,56.50
2018-06-10T19:01:16.581Z,55.80
2018-06-10T19:03:45.198Z,57.80
2018-06-10T19:06:13.731Z,57.10
2018-06-10T19:08:42.270Z,58.47
2018-06-10T19:11:11.113Z,62.63
2018-06-10T19:13:39.626Z,61.73
2018-06-10T19:16:08.165Z,60.20
2018-06-10T19:18:36.692Z,66.50
2018-06-10T19:21:05.521Z,59.90
2018-06-10T19:23:34.059Z,57.07
2018-06-10T19:26:02.539Z,55.47
2018-06-10T19:28:31.115Z,53.87
2018-06-10T19:30:59.634Z,51.30
2018-06-10T19:33:28.178Z,48.50
2018-06-10T19:35:56.748Z,53.83
2018-06-10T19:38:25.237Z,48.47
2018-06-10T19:40:53.770Z,50.90
2018-06-10T19:43:22.275Z,48.43
2018-06-10T19:45:50.801Z,54.77
2018-06-10T19:48:19.310Z,54.47
2018-06-10T19:50:47.485Z,53.53
2018-06-10T19:53:16.037Z,58.67
2018-06-10T19:55:44.579Z,59.17
2018-06-10T19:58:13.092Z,62.40
2018-06-10T20:00:41.639Z,65.77
2018-06-10T20:03:10.177Z,69.13
2018-06-10T20:05:38.693Z,63.80
2018-06-10T20:08:07.262Z,57.90
2018-06-10T20:10:35.532Z,64.67
2018-06-10T20:13:04.088Z,64.07
2018-06-10T20:15:32.763Z,69.37
2018-06-10T20:18:01.285Z,68.70
2018-06-10T20:20:29.799Z,41.67
2018-06-10T20:22:58.551Z,31.53
2018-06-10T20:25:27.073Z,29.40
2018-06-10T20:27:55.565Z,28.90
2018-06-10T20:30:24.802Z,25.37
2018-06-10T20:32:53.064Z,29.10
2018-06-10T20:35:21.805Z,30.80
2018-06-10T20:37:50.348Z,30.30
2018-06-10T20:40:18.879Z,32.37
2018-06-10T20:42:47.399Z,35.17
2018-06-10T20:45:15.896Z,36.17
2018-06-10T20:47:44.388Z,36.30
2018-06-10T20:50:13.420Z,38.27
2018-06-10T20:52:41.907Z,39.57
2018-06-10T20:55:10.453Z,43.97
2018-06-10T20:57:41.324Z,41.37
2018-06-10T21:00:09.864Z,48.77
2018-06-10T21:02:38.393Z,58.67
2018-06-10T21:05:07.838Z,67.23
2018-06-10T21:07:36.379Z,65.57
2018-06-10T21:10:04.958Z,63.37
2018-06-10T21:12:33.485Z,100.90
2018-06-10T21:15:02.021Z,112.07
2018-06-10T21:17:31.977Z,114.77
2018-06-10T21:20:02.538Z,107.33
2018-06-10T21:22:31.298Z,106.10
2018-06-10T21:24:59.906Z,106.27
2018-06-10T21:27:28.408Z,95.13
2018-06-10T21:29:56.925Z,98.50
2018-06-10T21:32:25.429Z,94.27
2018-06-10T21:34:54.163Z,95.03
2018-06-10T21:37:22.666Z,94.50
2018-06-10T21:39:51.499Z,101.23
2018-06-10T21:42:19.989Z,183.20
2018-06-10T21:44:48.555Z,174.70
2018-06-10T21:47:17.045Z,179.80
2018-06-10T21:49:45.363Z,176.33
2018-06-10T21:52:13.951Z,169.50
2018-06-10T21:54:42.191Z,156.97
2018-06-10T21:57:10.744Z,148.53
2018-06-10T21:59:39.316Z,140.67
2018-06-10T22:02:09.825Z,154.23
2018-06-10T22:04:38.413Z,148.27
2018-06-10T22:07:07.030Z,150.27
2018-06-10T22:09:35.608Z,144.23
2018-06-10T22:12:04.228Z,137.60
2018-06-10T22:14:33.014Z,128.47
2018-06-10T22:17:01.566Z,135.77
2018-06-10T22:19:30.095Z,126.03
2018-06-10T22:21:58.627Z,134.77
2018-06-10T22:24:27.143Z,125.43
2018-06-10T22:26:55.980Z,140.77
2018-06-10T22:29:24.703Z,143.43
2018-06-10T22:31:53.322Z,142.13
2018-06-10T22:34:21.959Z,154.37
2018-06-10T22:36:50.755Z,134.57
2018-06-10T22:39:19.548Z,138.60
2018-06-10T22:41:48.724Z,137.97
2018-06-10T22:44:17.276Z,136.80
2018-06-10T22:46:45.849Z,137.10
2018-06-10T22:49:14.386Z,148.83
2018-06-10T22:51:42.926Z,140.93
2018-06-10T22:54:43.275Z,126.37
2018-06-10T22:57:11.838Z,129.33
2018-06-10T22:59:40.489Z,142.70
2018-06-10T23:02:09.834Z,130.63
2018-06-10T23:04:38.370Z,126.37
2018-06-10T23:07:06.873Z,131.57
2018-06-10T23:09:35.455Z,140.17
2018-06-10T23:12:04.029Z,102.90
2018-06-10T23:14:32.646Z,73.20
2018-06-10T23:17:01.595Z,67.90
2018-06-10T23:19:30.120Z,73.13
2018-06-10T23:21:58.599Z,52.87
2018-06-10T23:24:27.165Z,56.77
2018-06-10T23:26:55.645Z,68.07
2018-06-10T23:29:24.155Z,70.23
2018-06-10T23:31:52.728Z,67.00
2018-06-10T23:34:21.249Z,66.77
2018-06-10T23:36:50.807Z,79.50
2018-06-10T23:39:19.366Z,86.10
2018-06-10T23:41:47.862Z,93.77
2018-06-10T23:44:16.402Z,99.57
2018-06-10T23:46:44.888Z,104.27
2018-06-10T23:49:15.761Z,93.00
2018-06-10T23:51:45.299Z,92.97
2018-06-10T23:54:14.016Z,95.43
2018-06-10T23:56:42.208Z,119.60
2018-06-10T23:59:10.733Z,92.60
